sensor_id;sensor_type;location;lat;lon;timestamp;P1;durP1;ratioP1;P2;durP2;ratioP2
53642;SDS011;39546;45.534;12.048;2023-05-17T00:04:30;4.03;;;2.42;;
53642;SDS011;39546;45.534;12.048;2023-05-17T00:10:35;2.08;;;1.85;;
53642;SDS011;39546;45.534;12.048;2023-05-17T00:16:37;3.20;;;2.25;;
53642;SDS011;39546;45.534;12.048;2023-05-17T00:22:45;2.80;;;2.00;;
53642;SDS011;39546;45.534;12.048;2023-05-17T00:28:48;1.55;;;1.42;;
53642;SDS011;39546;45.534;12.048;2023-05-17T00:35:01;2.80;;;1.60;;
53642;SDS011;39546;45.534;12.048;2023-05-17T00:41:27;1.70;;;1.60;;
53642;SDS011;39546;45.534;12.048;2023-05-17T00:47:48;3.28;;;1.52;;
53642;SDS011;39546;45.534;12.048;2023-05-17T00:54:33;1.52;;;1.15;;
53642;SDS011;39546;45.534;12.048;2023-05-17T01:00:50;1.73;;;1.33;;
53642;SDS011;39546;45.534;12.048;2023-05-17T01:06:52;1.00;;;0.88;;
53642;SDS011;39546;45.534;12.048;2023-05-17T01:13:01;0.80;;;0.80;;
53642;SDS011;39546;45.534;12.048;2023-05-17T01:19:48;1.17;;;0.90;;
53642;SDS011;39546;45.534;12.048;2023-05-17T01:26:12;1.08;;;0.90;;
53642;SDS011;39546;45.534;12.048;2023-05-17T01:32:56;2.12;;;1.00;;
53642;SDS011;39546;45.534;12.048;2023-05-17T01:39:01;0.82;;;0.60;;
53642;SDS011;39546;45.534;12.048;2023-05-17T01:51:32;1.48;;;0.88;;
53642;SDS011;39546;45.534;12.048;2023-05-17T01:57:41;0.60;;;0.60;;
53642;SDS011;39546;45.534;12.048;2023-05-17T02:03:48;0.85;;;0.80;;
53642;SDS011;39546;45.534;12.048;2023-05-17T02:09:50;0.68;;;0.68;;
53642;SDS011;39546;45.534;12.048;2023-05-17T02:15:52;0.82;;;0.75;;
53642;SDS011;39546;45.534;12.048;2023-05-17T02:21:54;1.15;;;0.80;;
53642;SDS011;39546;45.534;12.048;2023-05-17T02:27:56;3.35;;;0.82;;
53642;SDS011;39546;45.534;12.048;2023-05-17T02:33:58;0.60;;;0.60;;
53642;SDS011;39546;45.534;12.048;2023-05-17T02:40:00;0.70;;;0.70;;
53642;SDS011;39546;45.534;12.048;2023-05-17T02:46:02;1.58;;;0.68;;
53642;SDS011;39546;45.534;12.048;2023-05-17T02:52:04;0.80;;;0.80;;
53642;SDS011;39546;45.534;12.048;2023-05-17T02:58:07;0.75;;;0.75;;
53642;SDS011;39546;45.534;12.048;2023-05-17T03:04:09;1.00;;;0.93;;
53642;SDS011;39546;45.534;12.048;2023-05-17T03:10:11;0.93;;;0.93;;
53642;SDS011;39546;45.534;12.048;2023-05-17T03:16:13;0.60;;;0.60;;
53642;SDS011;39546;45.534;12.048;2023-05-17T03:22:15;0.62;;;0.62;;
53642;SDS011;39546;45.534;12.048;2023-05-17T03:28:18;2.97;;;0.95;;
53642;SDS011;39546;45.534;12.048;2023-05-17T03:34:21;0.70;;;0.70;;
53642;SDS011;39546;45.534;12.048;2023-05-17T03:40:22;0.60;;;0.60;;
53642;SDS011;39546;45.534;12.048;2023-05-17T03:46:24;0.70;;;0.70;;
53642;SDS011;39546;45.534;12.048;2023-05-17T03:52:27;0.88;;;0.80;;
53642;SDS011;39546;45.534;12.048;2023-05-17T03:58:29;0.75;;;0.75;;
53642;SDS011;39546;45.534;12.048;2023-05-17T04:04:31;3.20;;;0.70;;
53642;SDS011;39546;45.534;12.048;2023-05-17T04:10:33;0.70;;;0.70;;
53642;SDS011;39546;45.534;12.048;2023-05-17T04:16:37;0.60;;;0.60;;
53642;SDS011;39546;45.534;12.048;2023-05-17T04:22:40;0.62;;;0.60;;
53642;SDS011;39546;45.534;12.048;2023-05-17T04:28:43;1.05;;;0.80;;
53642;SDS011;39546;45.534;12.048;2023-05-17T04:34:45;0.75;;;0.75;;
53642;SDS011;39546;45.534;12.048;2023-05-17T04:40:49;2.22;;;1.52;;
53642;SDS011;39546;45.534;12.048;2023-05-17T04:47:51;0.80;;;0.80;;
53642;SDS011;39546;45.534;12.048;2023-05-17T04:53:53;0.77;;;0.77;;
53642;SDS011;39546;45.534;12.048;2023-05-17T04:59:55;1.10;;;0.93;;
53642;SDS011;39546;45.534;12.048;2023-05-17T05:05:58;0.93;;;0.90;;
53642;SDS011;39546;45.534;12.048;2023-05-17T05:12:01;1.67;;;0.95;;
53642;SDS011;39546;45.534;12.048;2023-05-17T05:18:04;2.37;;;1.17;;
53642;SDS011;39546;45.534;12.048;2023-05-17T05:24:07;0.60;;;0.60;;
53642;SDS011;39546;45.534;12.048;2023-05-17T05:30:10;1.10;;;0.60;;
53642;SDS011;39546;45.534;12.048;2023-05-17T05:36:13;0.98;;;0.80;;
53642;SDS011;39546;45.534;12.048;2023-05-17T05:42:15;1.23;;;1.02;;
53642;SDS011;39546;45.534;12.048;2023-05-17T05:48:20;0.60;;;0.60;;
53642;SDS011;39546;45.534;12.048;2023-05-17T05:54:23;0.60;;;0.60;;
53642;SDS011;39546;45.534;12.048;2023-05-17T06:00:26;0.62;;;0.60;;
53642;SDS011;39546;45.534;12.048;2023-05-17T06:06:28;10.68;;;1.70;;
53642;SDS011;39546;45.534;12.048;2023-05-17T06:12:31;0.98;;;0.98;;
53642;SDS011;39546;45.534;12.048;2023-05-17T06:18:33;1.15;;;0.90;;
53642;SDS011;39546;45.534;12.048;2023-05-17T06:24:35;1.12;;;1.02;;
53642;SDS011;39546;45.534;12.048;2023-05-17T06:30:39;1.23;;;1.15;;
53642;SDS011;39546;45.534;12.048;2023-05-17T06:36:53;1.15;;;0.95;;
53642;SDS011;39546;45.534;12.048;2023-05-17T06:42:55;1.62;;;1.35;;
53642;SDS011;39546;45.534;12.048;2023-05-17T06:48:57;0.88;;;0.82;;
53642;SDS011;39546;45.534;12.048;2023-05-17T06:55:00;1.50;;;1.27;;
53642;SDS011;39546;45.534;12.048;2023-05-17T07:07:26;1.83;;;1.20;;
53642;SDS011;39546;45.534;12.048;2023-05-17T07:13:28;1.17;;;1.08;;
53642;SDS011;39546;45.534;12.048;2023-05-17T07:19:31;1.75;;;1.40;;
53642;SDS011;39546;45.534;12.048;2023-05-17T07:25:40;0.85;;;0.85;;
53642;SDS011;39546;45.534;12.048;2023-05-17T07:32:10;2.00;;;1.35;;
53642;SDS011;39546;45.534;12.048;2023-05-17T07:38:12;4.22;;;2.40;;
53642;SDS011;39546;45.534;12.048;2023-05-17T07:44:16;2.80;;;2.05;;
53642;SDS011;39546;45.534;12.048;2023-05-17T07:50:18;6.07;;;2.15;;
53642;SDS011;39546;45.534;12.048;2023-05-17T07:56:20;2.22;;;1.50;;
53642;SDS011;39546;45.534;12.048;2023-05-17T08:02:22;3.62;;;1.60;;
53642;SDS011;39546;45.534;12.048;2023-05-17T08:08:24;1.10;;;1.00;;
53642;SDS011;39546;45.534;12.048;2023-05-17T08:14:26;2.75;;;1.60;;
53642;SDS011;39546;45.534;12.048;2023-05-17T08:20:28;5.50;;;3.83;;
53642;SDS011;39546;45.534;12.048;2023-05-17T08:26:33;2.92;;;1.98;;
53642;SDS011;39546;45.534;12.048;2023-05-17T08:32:35;3.47;;;1.77;;
53642;SDS011;39546;45.534;12.048;2023-05-17T08:38:37;1.55;;;1.30;;
53642;SDS011;39546;45.534;12.048;2023-05-17T08:44:39;2.90;;;2.05;;
53642;SDS011;39546;45.534;12.048;2023-05-17T08:50:41;3.45;;;2.10;;
53642;SDS011;39546;45.534;12.048;2023-05-17T08:56:45;1.98;;;1.77;;
53642;SDS011;39546;45.534;12.048;2023-05-17T09:02:52;2.28;;;1.65;;
53642;SDS011;39546;45.534;12.048;2023-05-17T09:08:54;3.37;;;2.67;;
53642;SDS011;39546;45.534;12.048;2023-05-17T09:15:10;2.83;;;2.20;;
53642;SDS011;39546;45.534;12.048;2023-05-17T09:21:16;3.12;;;2.28;;
53642;SDS011;39546;45.534;12.048;2023-05-17T09:27:18;2.35;;;1.85;;
53642;SDS011;39546;45.534;12.048;2023-05-17T09:33:21;2.58;;;1.27;;
53642;SDS011;39546;45.534;12.048;2023-05-17T09:39:23;2.55;;;1.58;;
53642;SDS011;39546;45.534;12.048;2023-05-17T09:45:26;2.03;;;1.35;;
53642;SDS011;39546;45.534;12.048;2023-05-17T09:57:37;1.37;;;1.17;;
53642;SDS011;39546;45.534;12.048;2023-05-17T10:03:40;1.20;;;1.10;;
53642;SDS011;39546;45.534;12.048;2023-05-17T10:09:44;2.45;;;1.30;;
53642;SDS011;39546;45.534;12.048;2023-05-17T10:15:47;1.37;;;1.05;;
53642;SDS011;39546;45.534;12.048;2023-05-17T10:21:51;1.30;;;1.20;;
53642;SDS011;39546;45.534;12.048;2023-05-17T10:27:53;2.87;;;1.85;;
53642;SDS011;39546;45.534;12.048;2023-05-17T10:33:56;3.85;;;1.98;;
53642;SDS011;39546;45.534;12.048;2023-05-17T10:40:00;4.18;;;0.93;;
53642;SDS011;39546;45.534;12.048;2023-05-17T10:46:03;1.10;;;1.00;;
53642;SDS011;39546;45.534;12.048;2023-05-17T10:52:16;4.53;;;1.45;;
53642;SDS011;39546;45.534;12.048;2023-05-17T10:58:19;1.08;;;0.80;;
53642;SDS011;39546;45.534;12.048;2023-05-17T11:10:26;1.77;;;1.17;;
53642;SDS011;39546;45.534;12.048;2023-05-17T11:22:57;3.72;;;1.20;;
53642;SDS011;39546;45.534;12.048;2023-05-17T11:29:05;5.25;;;1.27;;
53642;SDS011;39546;45.534;12.048;2023-05-17T11:35:10;1.30;;;0.97;;
53642;SDS011;39546;45.534;12.048;2023-05-17T11:41:18;0.75;;;0.65;;
53642;SDS011;39546;45.534;12.048;2023-05-17T11:47:21;1.02;;;0.93;;
53642;SDS011;39546;45.534;12.048;2023-05-17T11:53:24;0.50;;;0.50;;
53642;SDS011;39546;45.534;12.048;2023-05-17T11:59:27;1.02;;;0.80;;
53642;SDS011;39546;45.534;12.048;2023-05-17T12:05:29;1.37;;;0.90;;
53642;SDS011;39546;45.534;12.048;2023-05-17T12:11:31;3.20;;;1.08;;
53642;SDS011;39546;45.534;12.048;2023-05-17T12:17:36;0.52;;;0.52;;
53642;SDS011;39546;45.534;12.048;2023-05-17T12:23:46;1.08;;;0.50;;
53642;SDS011;39546;45.534;12.048;2023-05-17T12:36:26;0.95;;;0.82;;
53642;SDS011;39546;45.534;12.048;2023-05-17T12:49:05;0.80;;;0.80;;
53642;SDS011;39546;45.534;12.048;2023-05-17T12:55:12;1.15;;;0.82;;
53642;SDS011;39546;45.534;12.048;2023-05-17T13:01:14;1.10;;;0.93;;
53642;SDS011;39546;45.534;12.048;2023-05-17T13:07:21;0.85;;;0.80;;
53642;SDS011;39546;45.534;12.048;2023-05-17T13:13:31;0.50;;;0.50;;
53642;SDS011;39546;45.534;12.048;2023-05-17T13:19:35;0.88;;;0.88;;
53642;SDS011;39546;45.534;12.048;2023-05-17T13:25:38;0.40;;;0.40;;
53642;SDS011;39546;45.534;12.048;2023-05-17T13:31:41;2.72;;;0.50;;
53642;SDS011;39546;45.534;12.048;2023-05-17T13:37:53;1.40;;;1.30;;
53642;SDS011;39546;45.534;12.048;2023-05-17T13:43:55;0.60;;;0.60;;
53642;SDS011;39546;45.534;12.048;2023-05-17T13:49:58;6.80;;;0.93;;
53642;SDS011;39546;45.534;12.048;2023-05-17T13:56:19;1.10;;;0.80;;
53642;SDS011;39546;45.534;12.048;2023-05-17T14:02:24;0.60;;;0.60;;
53642;SDS011;39546;45.534;12.048;2023-05-17T14:08:26;0.60;;;0.60;;
53642;SDS011;39546;45.534;12.048;2023-05-17T14:14:29;0.70;;;0.70;;
53642;SDS011;39546;45.534;12.048;2023-05-17T14:20:31;0.60;;;0.60;;
53642;SDS011;39546;45.534;12.048;2023-05-17T14:26:34;1.15;;;0.70;;
53642;SDS011;39546;45.534;12.048;2023-05-17T14:32:37;3.22;;;0.77;;
53642;SDS011;39546;45.534;12.048;2023-05-17T14:38:40;0.80;;;0.55;;
53642;SDS011;39546;45.534;12.048;2023-05-17T14:44:42;0.70;;;0.70;;
53642;SDS011;39546;45.534;12.048;2023-05-17T14:50:45;0.65;;;0.65;;
53642;SDS011;39546;45.534;12.048;2023-05-17T14:56:47;0.50;;;0.50;;
53642;SDS011;39546;45.534;12.048;2023-05-17T15:02:49;0.88;;;0.82;;
53642;SDS011;39546;45.534;12.048;2023-05-17T15:08:52;0.73;;;0.70;;
53642;SDS011;39546;45.534;12.048;2023-05-17T15:14:55;0.62;;;0.62;;
53642;SDS011;39546;45.534;12.048;2023-05-17T15:20:57;1.87;;;0.85;;
53642;SDS011;39546;45.534;12.048;2023-05-17T15:26:59;1.70;;;0.82;;
53642;SDS011;39546;45.534;12.048;2023-05-17T15:33:01;0.60;;;0.60;;
53642;SDS011;39546;45.534;12.048;2023-05-17T15:39:10;0.88;;;0.75;;
53642;SDS011;39546;45.534;12.048;2023-05-17T15:45:12;1.37;;;0.80;;
53642;SDS011;39546;45.534;12.048;2023-05-17T15:51:14;1.02;;;0.75;;
53642;SDS011;39546;45.534;12.048;2023-05-17T15:57:17;0.60;;;0.60;;
53642;SDS011;39546;45.534;12.048;2023-05-17T16:09:52;1.05;;;0.90;;
53642;SDS011;39546;45.534;12.048;2023-05-17T16:15:58;1.25;;;0.85;;
53642;SDS011;39546;45.534;12.048;2023-05-17T16:22:00;1.40;;;0.90;;
53642;SDS011;39546;45.534;12.048;2023-05-17T16:28:04;1.15;;;0.75;;
53642;SDS011;39546;45.534;12.048;2023-05-17T16:34:06;0.57;;;0.57;;
53642;SDS011;39546;45.534;12.048;2023-05-17T16:40:09;0.77;;;0.77;;
53642;SDS011;39546;45.534;12.048;2023-05-17T16:46:11;0.93;;;0.62;;
53642;SDS011;39546;45.534;12.048;2023-05-17T16:52:13;1.02;;;0.85;;
53642;SDS011;39546;45.534;12.048;2023-05-17T16:58:15;1.73;;;1.25;;
53642;SDS011;39546;45.534;12.048;2023-05-17T17:04:18;0.98;;;0.88;;
53642;SDS011;39546;45.534;12.048;2023-05-17T17:10:20;1.15;;;0.90;;
53642;SDS011;39546;45.534;12.048;2023-05-17T17:16:26;7.47;;;1.37;;
53642;SDS011;39546;45.534;12.048;2023-05-17T17:22:30;0.80;;;0.80;;
53642;SDS011;39546;45.534;12.048;2023-05-17T17:28:32;2.05;;;0.95;;
53642;SDS011;39546;45.534;12.048;2023-05-17T17:34:35;0.80;;;0.68;;
53642;SDS011;39546;45.534;12.048;2023-05-17T17:40:45;0.60;;;0.60;;
53642;SDS011;39546;45.534;12.048;2023-05-17T17:46:47;0.95;;;0.60;;
53642;SDS011;39546;45.534;12.048;2023-05-17T17:52:49;3.47;;;0.90;;
53642;SDS011;39546;45.534;12.048;2023-05-17T17:58:52;1.10;;;0.98;;
53642;SDS011;39546;45.534;12.048;2023-05-17T18:11:15;0.80;;;0.80;;
53642;SDS011;39546;45.534;12.048;2023-05-17T18:17:22;0.73;;;0.73;;
53642;SDS011;39546;45.534;12.048;2023-05-17T18:23:25;0.80;;;0.80;;
53642;SDS011;39546;45.534;12.048;2023-05-17T18:29:28;1.50;;;0.93;;
53642;SDS011;39546;45.534;12.048;2023-05-17T18:35:39;0.80;;;0.80;;
53642;SDS011;39546;45.534;12.048;2023-05-17T18:42:43;3.95;;;1.42;;
53642;SDS011;39546;45.534;12.048;2023-05-17T18:48:45;1.90;;;0.80;;
53642;SDS011;39546;45.534;12.048;2023-05-17T18:54:49;0.80;;;0.80;;
53642;SDS011;39546;45.534;12.048;2023-05-17T19:00:54;1.95;;;1.30;;
53642;SDS011;39546;45.534;12.048;2023-05-17T19:06:58;1.05;;;0.88;;
53642;SDS011;39546;45.534;12.048;2023-05-17T19:13:01;1.55;;;1.15;;
53642;SDS011;39546;45.534;12.048;2023-05-17T19:19:03;1.37;;;1.08;;
53642;SDS011;39546;45.534;12.048;2023-05-17T19:25:08;1.85;;;1.00;;
53642;SDS011;39546;45.534;12.048;2023-05-17T19:31:10;2.22;;;1.12;;
53642;SDS011;39546;45.534;12.048;2023-05-17T19:37:13;2.12;;;0.95;;
53642;SDS011;39546;45.534;12.048;2023-05-17T19:43:15;1.33;;;1.00;;
53642;SDS011;39546;45.534;12.048;2023-05-17T19:49:17;2.20;;;1.30;;
53642;SDS011;39546;45.534;12.048;2023-05-17T19:55:21;1.90;;;1.10;;
53642;SDS011;39546;45.534;12.048;2023-05-17T20:01:25;1.10;;;1.00;;
53642;SDS011;39546;45.534;12.048;2023-05-17T20:07:27;2.75;;;1.37;;
53642;SDS011;39546;45.534;12.048;2023-05-17T20:13:32;0.93;;;0.93;;
53642;SDS011;39546;45.534;12.048;2023-05-17T20:19:34;0.90;;;0.90;;
53642;SDS011;39546;45.534;12.048;2023-05-17T20:26:00;1.52;;;1.15;;
53642;SDS011;39546;45.534;12.048;2023-05-17T20:32:03;0.85;;;0.85;;
53642;SDS011;39546;45.534;12.048;2023-05-17T20:38:06;1.67;;;0.90;;
53642;SDS011;39546;45.534;12.048;2023-05-17T20:44:08;1.45;;;0.80;;
53642;SDS011;39546;45.534;12.048;2023-05-17T20:50:13;0.80;;;0.70;;
53642;SDS011;39546;45.534;12.048;2023-05-17T20:56:17;1.15;;;0.80;;
53642;SDS011;39546;45.534;12.048;2023-05-17T21:02:20;1.40;;;1.20;;
53642;SDS011;39546;45.534;12.048;2023-05-17T21:08:25;0.88;;;0.80;;
53642;SDS011;39546;45.534;12.048;2023-05-17T21:14:29;1.90;;;1.25;;
53642;SDS011;39546;45.534;12.048;2023-05-17T21:20:34;1.25;;;0.52;;
53642;SDS011;39546;45.534;12.048;2023-05-17T21:26:37;1.58;;;0.70;;
53642;SDS011;39546;45.534;12.048;2023-05-17T21:32:42;8.35;;;0.98;;
53642;SDS011;39546;45.534;12.048;2023-05-17T21:38:46;1.73;;;0.68;;
53642;SDS011;39546;45.534;12.048;2023-05-17T21:44:49;2.10;;;1.27;;
53642;SDS011;39546;45.534;12.048;2023-05-17T21:50:51;0.60;;;0.60;;
53642;SDS011;39546;45.534;12.048;2023-05-17T21:56:53;0.82;;;0.80;;
53642;SDS011;39546;45.534;12.048;2023-05-17T22:02:56;0.50;;;0.50;;
53642;SDS011;39546;45.534;12.048;2023-05-17T22:08:58;0.60;;;0.60;;
53642;SDS011;39546;45.534;12.048;2023-05-17T22:15:00;1.52;;;0.80;;
53642;SDS011;39546;45.534;12.048;2023-05-17T22:21:02;2.53;;;0.95;;
53642;SDS011;39546;45.534;12.048;2023-05-17T22:27:04;0.80;;;0.80;;
53642;SDS011;39546;45.534;12.048;2023-05-17T22:33:06;1.00;;;0.70;;
53642;SDS011;39546;45.534;12.048;2023-05-17T22:39:08;2.42;;;0.82;;
53642;SDS011;39546;45.534;12.048;2023-05-17T22:45:10;1.02;;;0.90;;
53642;SDS011;39546;45.534;12.048;2023-05-17T22:51:15;2.25;;;0.80;;
53642;SDS011;39546;45.534;12.048;2023-05-17T22:57:18;1.00;;;0.68;;
53642;SDS011;39546;45.534;12.048;2023-05-17T23:03:20;2.08;;;0.70;;
53642;SDS011;39546;45.534;12.048;2023-05-17T23:09:22;0.80;;;0.80;;
53642;SDS011;39546;45.534;12.048;2023-05-17T23:15:24;1.27;;;0.77;;
53642;SDS011;39546;45.534;12.048;2023-05-17T23:21:28;0.68;;;0.68;;
53642;SDS011;39546;45.534;12.048;2023-05-17T23:27:33;0.80;;;0.80;;
53642;SDS011;39546;45.534;12.048;2023-05-17T23:33:36;1.12;;;1.00;;
53642;SDS011;39546;45.534;12.048;2023-05-17T23:39:46;0.68;;;0.50;;
53642;SDS011;39546;45.534;12.048;2023-05-17T23:45:50;3.03;;;0.68;;
53642;SDS011;39546;45.534;12.048;2023-05-17T23:51:53;1.27;;;1.17;;
53642;SDS011;39546;45.534;12.048;2023-05-17T23:57:56;4.03;;;1.75;;
